Terminal Aerodrome Forecast
Issued by NWS

Home | Current Version | Previous Version | Text Only | Print | Product List | Glossary On
Versions: 1 2 3 4 5 6 7 8 9 10 11 12 13 14 15 16 17 18 19 20 21
000
FTUS44 KMAF 262327
TAFFST
TAF
KFST 262327Z 2700/2724 28010KT P6SM -RA SCT010 OVC100
      TEMPO 2700/2703 VRB10G20KT 5SM SHRA BKN040
     FM270600 30006KT P6SM BKN020=

USA.gov is the U.S. government's official web portal to all federal, state and local government web resources and services.